sensor_id;sensor_type;location;lat;lon;timestamp;temperature;humidity
17619;DHT22;8928;51.678;6.074;2023-04-06T00:02:13;1.10;99.90
17619;DHT22;8928;51.678;6.074;2023-04-06T00:05:00;1.10;99.90
17619;DHT22;8928;51.678;6.074;2023-04-06T00:07:47;1.10;99.90
17619;DHT22;8928;51.678;6.074;2023-04-06T00:10:34;1.10;99.90
17619;DHT22;8928;51.678;6.074;2023-04-06T00:13:23;1.20;99.90
17619;DHT22;8928;51.678;6.074;2023-04-06T00:16:10;1.20;99.90
17619;DHT22;8928;51.678;6.074;2023-04-06T00:18:57;1.20;99.90
17619;DHT22;8928;51.678;6.074;2023-04-06T00:21:44;1.20;99.90
17619;DHT22;8928;51.678;6.074;2023-04-06T00:24:32;1.20;99.90
17619;DHT22;8928;51.678;6.074;2023-04-06T00:27:19;1.20;99.90
17619;DHT22;8928;51.678;6.074;2023-04-06T00:30:08;1.20;99.90
17619;DHT22;8928;51.678;6.074;2023-04-06T00:32:56;1.10;99.90
17619;DHT22;8928;51.678;6.074;2023-04-06T00:35:43;1.10;99.90
17619;DHT22;8928;51.678;6.074;2023-04-06T00:38:30;0.80;99.90
17619;DHT22;8928;51.678;6.074;2023-04-06T00:41:18;0.60;99.90
17619;DHT22;8928;51.678;6.074;2023-04-06T00:44:06;0.50;99.90
17619;DHT22;8928;51.678;6.074;2023-04-06T00:46:55;0.40;99.90
17619;DHT22;8928;51.678;6.074;2023-04-06T00:49:42;0.30;99.90
17619;DHT22;8928;51.678;6.074;2023-04-06T00:52:29;0.20;99.90
17619;DHT22;8928;51.678;6.074;2023-04-06T00:55:17;0.20;99.90
17619;DHT22;8928;51.678;6.074;2023-04-06T00:58:04;0.20;99.90
17619;DHT22;8928;51.678;6.074;2023-04-06T01:00:51;0.10;99.90
17619;DHT22;8928;51.678;6.074;2023-04-06T01:03:39;0.00;99.90
17619;DHT22;8928;51.678;6.074;2023-04-06T01:06:28;0.00;99.90
17619;DHT22;8928;51.678;6.074;2023-04-06T01:09:15;-0.10;99.90
17619;DHT22;8928;51.678;6.074;2023-04-06T01:12:02;-0.10;99.90
17619;DHT22;8928;51.678;6.074;2023-04-06T01:14:49;-0.20;99.90
17619;DHT22;8928;51.678;6.074;2023-04-06T01:17:36;-0.20;99.90
17619;DHT22;8928;51.678;6.074;2023-04-06T01:20:25;0.00;99.90
17619;DHT22;8928;51.678;6.074;2023-04-06T01:23:13;0.00;99.90
17619;DHT22;8928;51.678;6.074;2023-04-06T01:26:01;-0.10;99.90
17619;DHT22;8928;51.678;6.074;2023-04-06T01:28:48;-0.10;99.90
17619;DHT22;8928;51.678;6.074;2023-04-06T01:31:35;-0.10;99.90
17619;DHT22;8928;51.678;6.074;2023-04-06T01:34:22;-0.30;99.90
17619;DHT22;8928;51.678;6.074;2023-04-06T01:37:09;-0.30;99.90
17619;DHT22;8928;51.678;6.074;2023-04-06T01:39:58;-0.30;99.90
17619;DHT22;8928;51.678;6.074;2023-04-06T01:42:45;-0.30;99.90
17619;DHT22;8928;51.678;6.074;2023-04-06T01:45:33;-0.40;99.90
17619;DHT22;8928;51.678;6.074;2023-04-06T01:48:20;-0.40;99.90
17619;DHT22;8928;51.678;6.074;2023-04-06T01:51:07;-0.40;99.90
17619;DHT22;8928;51.678;6.074;2023-04-06T01:53:54;-0.50;99.90
17619;DHT22;8928;51.678;6.074;2023-04-06T01:56:43;-0.40;99.90
17619;DHT22;8928;51.678;6.074;2023-04-06T01:59:30;-0.30;99.90
17619;DHT22;8928;51.678;6.074;2023-04-06T02:02:17;-0.30;99.90
17619;DHT22;8928;51.678;6.074;2023-04-06T02:05:05;-0.30;99.90
17619;DHT22;8928;51.678;6.074;2023-04-06T02:07:52;-0.30;99.90
17619;DHT22;8928;51.678;6.074;2023-04-06T02:10:39;-0.30;99.90
17619;DHT22;8928;51.678;6.074;2023-04-06T02:13:28;-0.30;99.90
17619;DHT22;8928;51.678;6.074;2023-04-06T02:16:15;-0.40;99.90
17619;DHT22;8928;51.678;6.074;2023-04-06T02:19:02;-0.40;99.90
17619;DHT22;8928;51.678;6.074;2023-04-06T02:21:49;-0.40;99.90
17619;DHT22;8928;51.678;6.074;2023-04-06T02:24:36;-0.30;99.90
17619;DHT22;8928;51.678;6.074;2023-04-06T02:27:24;-0.30;99.90
17619;DHT22;8928;51.678;6.074;2023-04-06T02:30:12;-0.20;99.90
17619;DHT22;8928;51.678;6.074;2023-04-06T02:33:00;-0.10;99.90
17619;DHT22;8928;51.678;6.074;2023-04-06T02:35:47;0.00;99.90
17619;DHT22;8928;51.678;6.074;2023-04-06T02:38:35;0.00;99.90
17619;DHT22;8928;51.678;6.074;2023-04-06T02:41:22;0.00;99.90
17619;DHT22;8928;51.678;6.074;2023-04-06T02:44:09;0.10;99.90
17619;DHT22;8928;51.678;6.074;2023-04-06T02:46:57;0.00;99.90
17619;DHT22;8928;51.678;6.074;2023-04-06T02:49:45;0.10;99.90
17619;DHT22;8928;51.678;6.074;2023-04-06T02:52:32;0.10;99.90
17619;DHT22;8928;51.678;6.074;2023-04-06T02:55:19;0.10;99.90
17619;DHT22;8928;51.678;6.074;2023-04-06T02:58:06;0.10;99.90
17619;DHT22;8928;51.678;6.074;2023-04-06T03:00:54;0.20;99.90
17619;DHT22;8928;51.678;6.074;2023-04-06T03:03:42;0.10;99.90
17619;DHT22;8928;51.678;6.074;2023-04-06T03:06:29;0.10;99.90
17619;DHT22;8928;51.678;6.074;2023-04-06T03:09:17;0.20;99.90
17619;DHT22;8928;51.678;6.074;2023-04-06T03:12:04;0.20;99.90
17619;DHT22;8928;51.678;6.074;2023-04-06T03:14:51;0.20;99.90
17619;DHT22;8928;51.678;6.074;2023-04-06T03:17:39;0.20;99.90
17619;DHT22;8928;51.678;6.074;2023-04-06T03:20:27;0.20;99.90
17619;DHT22;8928;51.678;6.074;2023-04-06T03:23:14;0.20;99.90
17619;DHT22;8928;51.678;6.074;2023-04-06T03:26:01;0.30;99.90
17619;DHT22;8928;51.678;6.074;2023-04-06T03:28:49;0.30;99.90
17619;DHT22;8928;51.678;6.074;2023-04-06T03:31:36;0.30;99.90
17619;DHT22;8928;51.678;6.074;2023-04-06T03:34:23;0.30;99.90
17619;DHT22;8928;51.678;6.074;2023-04-06T03:37:12;0.30;99.90
17619;DHT22;8928;51.678;6.074;2023-04-06T03:39:59;0.40;99.90
17619;DHT22;8928;51.678;6.074;2023-04-06T03:42:46;0.40;99.90
17619;DHT22;8928;51.678;6.074;2023-04-06T03:45:33;0.40;99.90
17619;DHT22;8928;51.678;6.074;2023-04-06T03:48:21;0.50;99.90
17619;DHT22;8928;51.678;6.074;2023-04-06T03:51:08;0.50;99.90
17619;DHT22;8928;51.678;6.074;2023-04-06T03:53:56;0.50;99.90
17619;DHT22;8928;51.678;6.074;2023-04-06T03:56:43;0.50;99.90
17619;DHT22;8928;51.678;6.074;2023-04-06T03:59:31;0.50;99.90
17619;DHT22;8928;51.678;6.074;2023-04-06T04:02:18;0.50;99.90
17619;DHT22;8928;51.678;6.074;2023-04-06T04:05:05;0.60;99.90
17619;DHT22;8928;51.678;6.074;2023-04-06T04:07:53;0.50;99.90
17619;DHT22;8928;51.678;6.074;2023-04-06T04:10:42;0.50;99.90
17619;DHT22;8928;51.678;6.074;2023-04-06T04:13:29;0.50;99.90
17619;DHT22;8928;51.678;6.074;2023-04-06T04:16:16;0.60;99.90
17619;DHT22;8928;51.678;6.074;2023-04-06T04:19:03;0.60;99.90
17619;DHT22;8928;51.678;6.074;2023-04-06T04:21:50;0.60;99.90
17619;DHT22;8928;51.678;6.074;2023-04-06T04:24:37;0.60;99.90
17619;DHT22;8928;51.678;6.074;2023-04-06T04:27:26;0.70;99.90
17619;DHT22;8928;51.678;6.074;2023-04-06T04:30:13;0.70;99.90
17619;DHT22;8928;51.678;6.074;2023-04-06T04:33:01;0.80;99.90
17619;DHT22;8928;51.678;6.074;2023-04-06T04:35:48;0.70;99.90
17619;DHT22;8928;51.678;6.074;2023-04-06T04:38:35;0.60;99.90
17619;DHT22;8928;51.678;6.074;2023-04-06T04:41:22;0.70;99.90
17619;DHT22;8928;51.678;6.074;2023-04-06T04:44:11;0.70;99.90
17619;DHT22;8928;51.678;6.074;2023-04-06T04:46:58;0.80;99.90
17619;DHT22;8928;51.678;6.074;2023-04-06T04:49:45;0.90;99.90
17619;DHT22;8928;51.678;6.074;2023-04-06T04:52:33;1.00;99.90
17619;DHT22;8928;51.678;6.074;2023-04-06T04:55:20;1.00;99.90
17619;DHT22;8928;51.678;6.074;2023-04-06T04:58:07;1.10;99.90
17619;DHT22;8928;51.678;6.074;2023-04-06T05:00:58;1.10;99.90
17619;DHT22;8928;51.678;6.074;2023-04-06T05:03:45;1.10;99.90
17619;DHT22;8928;51.678;6.074;2023-04-06T05:06:32;1.10;99.90
17619;DHT22;8928;51.678;6.074;2023-04-06T05:09:19;1.10;99.90
17619;DHT22;8928;51.678;6.074;2023-04-06T05:12:07;1.20;99.90
17619;DHT22;8928;51.678;6.074;2023-04-06T05:14:54;1.20;99.90
17619;DHT22;8928;51.678;6.074;2023-04-06T05:17:42;1.20;99.90
17619;DHT22;8928;51.678;6.074;2023-04-06T05:20:30;1.30;99.90
17619;DHT22;8928;51.678;6.074;2023-04-06T05:23:17;1.30;99.90
17619;DHT22;8928;51.678;6.074;2023-04-06T05:26:04;1.40;99.90
17619;DHT22;8928;51.678;6.074;2023-04-06T05:28:51;1.30;99.90
17619;DHT22;8928;51.678;6.074;2023-04-06T05:31:40;1.20;99.90
17619;DHT22;8928;51.678;6.074;2023-04-06T05:34:29;1.20;99.90
17619;DHT22;8928;51.678;6.074;2023-04-06T05:37:16;1.30;99.90
17619;DHT22;8928;51.678;6.074;2023-04-06T05:40:04;1.40;99.90
17619;DHT22;8928;51.678;6.074;2023-04-06T05:42:52;1.60;99.90
17619;DHT22;8928;51.678;6.074;2023-04-06T05:45:39;1.80;99.90
17619;DHT22;8928;51.678;6.074;2023-04-06T05:48:26;1.90;99.90
17619;DHT22;8928;51.678;6.074;2023-04-06T05:51:14;2.10;99.90
17619;DHT22;8928;51.678;6.074;2023-04-06T05:54:02;2.30;99.90
17619;DHT22;8928;51.678;6.074;2023-04-06T05:56:49;2.40;99.90
17619;DHT22;8928;51.678;6.074;2023-04-06T05:59:36;2.50;99.90
17619;DHT22;8928;51.678;6.074;2023-04-06T06:02:23;2.70;99.90
17619;DHT22;8928;51.678;6.074;2023-04-06T06:05:10;2.80;99.90
17619;DHT22;8928;51.678;6.074;2023-04-06T06:07:59;2.80;99.90
17619;DHT22;8928;51.678;6.074;2023-04-06T06:10:47;2.90;99.90
17619;DHT22;8928;51.678;6.074;2023-04-06T06:13:35;3.00;99.90
17619;DHT22;8928;51.678;6.074;2023-04-06T06:16:22;3.10;99.90
17619;DHT22;8928;51.678;6.074;2023-04-06T06:19:09;3.20;99.90
17619;DHT22;8928;51.678;6.074;2023-04-06T06:21:56;3.40;99.90
17619;DHT22;8928;51.678;6.074;2023-04-06T06:24:45;3.50;99.90
17619;DHT22;8928;51.678;6.074;2023-04-06T06:27:33;3.70;99.90
17619;DHT22;8928;51.678;6.074;2023-04-06T06:30:20;4.00;99.90
17619;DHT22;8928;51.678;6.074;2023-04-06T06:33:07;4.20;99.90
17619;DHT22;8928;51.678;6.074;2023-04-06T06:35:54;4.40;99.90
17619;DHT22;8928;51.678;6.074;2023-04-06T06:38:41;4.50;99.90
17619;DHT22;8928;51.678;6.074;2023-04-06T06:41:30;4.70;99.90
17619;DHT22;8928;51.678;6.074;2023-04-06T06:44:17;4.80;99.90
17619;DHT22;8928;51.678;6.074;2023-04-06T06:47:04;5.00;99.90
17619;DHT22;8928;51.678;6.074;2023-04-06T06:49:51;5.30;99.90
17619;DHT22;8928;51.678;6.074;2023-04-06T06:52:39;5.40;99.90
17619;DHT22;8928;51.678;6.074;2023-04-06T06:55:27;5.50;99.90
17619;DHT22;8928;51.678;6.074;2023-04-06T06:58:17;5.70;99.90
17619;DHT22;8928;51.678;6.074;2023-04-06T07:01:04;5.70;99.90
17619;DHT22;8928;51.678;6.074;2023-04-06T07:03:52;5.90;99.90
17619;DHT22;8928;51.678;6.074;2023-04-06T07:06:39;6.00;99.90
17619;DHT22;8928;51.678;6.074;2023-04-06T07:09:26;6.10;99.90
17619;DHT22;8928;51.678;6.074;2023-04-06T07:12:13;6.30;99.90
17619;DHT22;8928;51.678;6.074;2023-04-06T07:15:03;6.40;99.90
17619;DHT22;8928;51.678;6.074;2023-04-06T07:17:51;6.60;99.90
17619;DHT22;8928;51.678;6.074;2023-04-06T07:20:40;6.70;99.90
17619;DHT22;8928;51.678;6.074;2023-04-06T07:23:27;6.80;99.90
17619;DHT22;8928;51.678;6.074;2023-04-06T07:26:14;6.90;99.90
17619;DHT22;8928;51.678;6.074;2023-04-06T07:29:01;7.00;99.90
17619;DHT22;8928;51.678;6.074;2023-04-06T07:31:50;7.20;99.90
17619;DHT22;8928;51.678;6.074;2023-04-06T07:34:37;7.30;99.90
17619;DHT22;8928;51.678;6.074;2023-04-06T07:37:24;7.30;99.90
17619;DHT22;8928;51.678;6.074;2023-04-06T07:40:11;7.40;99.90
17619;DHT22;8928;51.678;6.074;2023-04-06T07:42:58;7.50;99.90
17619;DHT22;8928;51.678;6.074;2023-04-06T07:45:46;7.70;99.90
17619;DHT22;8928;51.678;6.074;2023-04-06T07:48:34;7.90;99.90
17619;DHT22;8928;51.678;6.074;2023-04-06T07:51:23;8.10;99.90
17619;DHT22;8928;51.678;6.074;2023-04-06T07:54:11;8.30;99.90
17619;DHT22;8928;51.678;6.074;2023-04-06T07:56:58;8.50;99.90
17619;DHT22;8928;51.678;6.074;2023-04-06T07:59:46;8.60;99.90
17619;DHT22;8928;51.678;6.074;2023-04-06T08:02:33;8.70;99.90
17619;DHT22;8928;51.678;6.074;2023-04-06T08:05:21;8.80;99.90
17619;DHT22;8928;51.678;6.074;2023-04-06T08:08:09;9.00;99.90
17619;DHT22;8928;51.678;6.074;2023-04-06T08:10:56;9.10;99.90
17619;DHT22;8928;51.678;6.074;2023-04-06T08:13:43;9.20;99.90
17619;DHT22;8928;51.678;6.074;2023-04-06T08:16:30;9.20;99.90
17619;DHT22;8928;51.678;6.074;2023-04-06T08:19:17;9.30;99.90
17619;DHT22;8928;51.678;6.074;2023-04-06T08:22:06;9.40;99.90
17619;DHT22;8928;51.678;6.074;2023-04-06T08:24:53;9.40;99.90
17619;DHT22;8928;51.678;6.074;2023-04-06T08:27:40;9.40;99.90
17619;DHT22;8928;51.678;6.074;2023-04-06T08:30:28;9.40;99.90
17619;DHT22;8928;51.678;6.074;2023-04-06T08:33:15;9.50;99.90
17619;DHT22;8928;51.678;6.074;2023-04-06T08:36:09;9.60;99.90
17619;DHT22;8928;51.678;6.074;2023-04-06T08:39:00;9.70;99.90
17619;DHT22;8928;51.678;6.074;2023-04-06T08:41:47;9.80;99.90
17619;DHT22;8928;51.678;6.074;2023-04-06T08:44:34;9.90;99.90
17619;DHT22;8928;51.678;6.074;2023-04-06T08:47:23;10.10;99.90
17619;DHT22;8928;51.678;6.074;2023-04-06T08:50:11;10.40;99.90
17619;DHT22;8928;51.678;6.074;2023-04-06T08:52:59;10.60;99.90
17619;DHT22;8928;51.678;6.074;2023-04-06T08:55:49;10.90;99.90
17619;DHT22;8928;51.678;6.074;2023-04-06T08:58:39;11.00;99.90
17619;DHT22;8928;51.678;6.074;2023-04-06T09:01:27;11.20;99.90
17619;DHT22;8928;51.678;6.074;2023-04-06T09:04:15;11.20;99.90
17619;DHT22;8928;51.678;6.074;2023-04-06T09:07:02;11.40;99.90
17619;DHT22;8928;51.678;6.074;2023-04-06T09:09:49;11.50;99.90
17619;DHT22;8928;51.678;6.074;2023-04-06T09:12:38;11.60;99.90
17619;DHT22;8928;51.678;6.074;2023-04-06T09:15:26;11.70;99.90
17619;DHT22;8928;51.678;6.074;2023-04-06T09:18:13;11.60;99.90
17619;DHT22;8928;51.678;6.074;2023-04-06T09:21:01;11.80;99.90
17619;DHT22;8928;51.678;6.074;2023-04-06T09:23:58;11.80;99.90
17619;DHT22;8928;51.678;6.074;2023-04-06T09:26:46;11.80;99.90
17619;DHT22;8928;51.678;6.074;2023-04-06T09:29:35;11.90;99.90
17619;DHT22;8928;51.678;6.074;2023-04-06T09:32:22;12.10;99.90
17619;DHT22;8928;51.678;6.074;2023-04-06T09:35:10;12.30;99.90
17619;DHT22;8928;51.678;6.074;2023-04-06T09:37:57;12.50;99.90
17619;DHT22;8928;51.678;6.074;2023-04-06T09:40:49;12.70;99.90
17619;DHT22;8928;51.678;6.074;2023-04-06T09:43:36;12.80;99.90
17619;DHT22;8928;51.678;6.074;2023-04-06T09:46:24;12.90;99.90
17619;DHT22;8928;51.678;6.074;2023-04-06T09:49:13;13.00;99.90
17619;DHT22;8928;51.678;6.074;2023-04-06T09:52:06;13.20;99.90
17619;DHT22;8928;51.678;6.074;2023-04-06T09:54:56;13.30;99.90
17619;DHT22;8928;51.678;6.074;2023-04-06T09:57:52;13.50;99.90
17619;DHT22;8928;51.678;6.074;2023-04-06T10:00:44;13.50;99.90
17619;DHT22;8928;51.678;6.074;2023-04-06T10:03:42;13.50;99.90
17619;DHT22;8928;51.678;6.074;2023-04-06T10:06:34;13.40;99.90
17619;DHT22;8928;51.678;6.074;2023-04-06T10:09:24;13.30;99.90
17619;DHT22;8928;51.678;6.074;2023-04-06T10:12:12;13.40;99.90
17619;DHT22;8928;51.678;6.074;2023-04-06T10:15:00;13.50;99.90
17619;DHT22;8928;51.678;6.074;2023-04-06T10:17:47;13.60;99.90
17619;DHT22;8928;51.678;6.074;2023-04-06T10:20:41;13.60;99.90
17619;DHT22;8928;51.678;6.074;2023-04-06T10:23:33;13.60;99.90
17619;DHT22;8928;51.678;6.074;2023-04-06T10:26:21;13.50;99.90
17619;DHT22;8928;51.678;6.074;2023-04-06T10:29:08;13.50;99.90
17619;DHT22;8928;51.678;6.074;2023-04-06T10:31:56;13.50;99.90
17619;DHT22;8928;51.678;6.074;2023-04-06T10:34:43;13.30;99.90
17619;DHT22;8928;51.678;6.074;2023-04-06T10:37:46;13.30;99.90
17619;DHT22;8928;51.678;6.074;2023-04-06T10:40:36;13.50;99.90
17619;DHT22;8928;51.678;6.074;2023-04-06T10:43:23;13.60;99.90
17619;DHT22;8928;51.678;6.074;2023-04-06T10:46:11;13.70;99.90
17619;DHT22;8928;51.678;6.074;2023-04-06T10:49:08;13.60;99.90
17619;DHT22;8928;51.678;6.074;2023-04-06T10:51:56;13.70;99.90
17619;DHT22;8928;51.678;6.074;2023-04-06T10:54:46;14.00;99.90
17619;DHT22;8928;51.678;6.074;2023-04-06T10:57:34;14.20;99.90
17619;DHT22;8928;51.678;6.074;2023-04-06T11:00:22;14.30;99.90
17619;DHT22;8928;51.678;6.074;2023-04-06T11:03:09;14.20;99.90
17619;DHT22;8928;51.678;6.074;2023-04-06T11:05:56;14.10;99.90
17619;DHT22;8928;51.678;6.074;2023-04-06T11:08:44;14.40;99.90
17619;DHT22;8928;51.678;6.074;2023-04-06T11:11:32;14.60;99.90
17619;DHT22;8928;51.678;6.074;2023-04-06T11:14:19;14.90;99.90
17619;DHT22;8928;51.678;6.074;2023-04-06T11:17:06;14.40;99.90
17619;DHT22;8928;51.678;6.074;2023-04-06T11:19:54;14.10;99.90
17619;DHT22;8928;51.678;6.074;2023-04-06T11:22:51;14.20;99.90
17619;DHT22;8928;51.678;6.074;2023-04-06T11:25:38;14.30;99.90
17619;DHT22;8928;51.678;6.074;2023-04-06T11:28:26;13.90;99.90
17619;DHT22;8928;51.678;6.074;2023-04-06T11:31:14;13.90;99.90
17619;DHT22;8928;51.678;6.074;2023-04-06T11:34:01;14.00;99.90
17619;DHT22;8928;51.678;6.074;2023-04-06T11:36:57;14.00;99.90
17619;DHT22;8928;51.678;6.074;2023-04-06T11:39:47;14.20;99.90
17619;DHT22;8928;51.678;6.074;2023-04-06T11:42:36;14.40;99.90
17619;DHT22;8928;51.678;6.074;2023-04-06T11:45:24;14.20;99.90
17619;DHT22;8928;51.678;6.074;2023-04-06T11:48:18;13.80;99.90
17619;DHT22;8928;51.678;6.074;2023-04-06T11:51:06;13.70;99.90
17619;DHT22;8928;51.678;6.074;2023-04-06T11:53:53;13.60;99.90
17619;DHT22;8928;51.678;6.074;2023-04-06T11:56:40;13.60;99.90
17619;DHT22;8928;51.678;6.074;2023-04-06T11:59:28;13.40;99.90
17619;DHT22;8928;51.678;6.074;2023-04-06T12:02:16;13.00;99.90
17619;DHT22;8928;51.678;6.074;2023-04-06T12:05:05;12.80;99.90
17619;DHT22;8928;51.678;6.074;2023-04-06T12:07:54;12.50;99.90
17619;DHT22;8928;51.678;6.074;2023-04-06T12:10:41;12.20;99.90
17619;DHT22;8928;51.678;6.074;2023-04-06T12:13:28;12.20;99.90
17619;DHT22;8928;51.678;6.074;2023-04-06T12:16:15;12.20;99.90
17619;DHT22;8928;51.678;6.074;2023-04-06T12:19:06;12.00;99.90
17619;DHT22;8928;51.678;6.074;2023-04-06T12:21:53;11.70;99.90
17619;DHT22;8928;51.678;6.074;2023-04-06T12:24:41;11.40;99.90
17619;DHT22;8928;51.678;6.074;2023-04-06T12:27:28;11.20;99.90
17619;DHT22;8928;51.678;6.074;2023-04-06T12:30:16;11.00;99.90
17619;DHT22;8928;51.678;6.074;2023-04-06T12:33:03;10.90;99.90
17619;DHT22;8928;51.678;6.074;2023-04-06T12:35:51;10.80;99.90
17619;DHT22;8928;51.678;6.074;2023-04-06T12:38:39;10.60;99.90
17619;DHT22;8928;51.678;6.074;2023-04-06T12:41:27;10.50;99.90
17619;DHT22;8928;51.678;6.074;2023-04-06T12:44:16;10.40;99.90
17619;DHT22;8928;51.678;6.074;2023-04-06T12:47:03;10.20;99.90
17619;DHT22;8928;51.678;6.074;2023-04-06T12:49:50;10.10;99.90
17619;DHT22;8928;51.678;6.074;2023-04-06T12:52:38;9.90;99.90
17619;DHT22;8928;51.678;6.074;2023-04-06T12:55:26;9.80;99.90
17619;DHT22;8928;51.678;6.074;2023-04-06T12:58:16;9.70;99.90
17619;DHT22;8928;51.678;6.074;2023-04-06T13:01:06;9.60;99.90
17619;DHT22;8928;51.678;6.074;2023-04-06T13:03:55;9.50;99.90
17619;DHT22;8928;51.678;6.074;2023-04-06T13:06:42;9.50;99.90
17619;DHT22;8928;51.678;6.074;2023-04-06T13:09:30;9.50;99.90
17619;DHT22;8928;51.678;6.074;2023-04-06T13:12:18;9.50;99.90
17619;DHT22;8928;51.678;6.074;2023-04-06T13:15:06;9.60;99.90
17619;DHT22;8928;51.678;6.074;2023-04-06T13:17:53;9.50;99.90
17619;DHT22;8928;51.678;6.074;2023-04-06T13:20:41;9.50;99.90
17619;DHT22;8928;51.678;6.074;2023-04-06T13:23:28;9.40;99.90
17619;DHT22;8928;51.678;6.074;2023-04-06T13:26:17;9.40;99.90
17619;DHT22;8928;51.678;6.074;2023-04-06T13:29:04;9.40;99.90
17619;DHT22;8928;51.678;6.074;2023-04-06T13:31:51;9.20;99.90
17619;DHT22;8928;51.678;6.074;2023-04-06T13:34:38;9.20;99.90
17619;DHT22;8928;51.678;6.074;2023-04-06T13:37:26;9.20;99.90
17619;DHT22;8928;51.678;6.074;2023-04-06T13:40:13;9.20;99.90
17619;DHT22;8928;51.678;6.074;2023-04-06T13:43:02;9.20;99.90
17619;DHT22;8928;51.678;6.074;2023-04-06T13:45:49;9.20;99.90
17619;DHT22;8928;51.678;6.074;2023-04-06T13:48:37;9.20;99.90
17619;DHT22;8928;51.678;6.074;2023-04-06T13:51:24;9.20;99.90
17619;DHT22;8928;51.678;6.074;2023-04-06T13:54:12;9.10;99.90
17619;DHT22;8928;51.678;6.074;2023-04-06T13:56:59;9.10;99.90
17619;DHT22;8928;51.678;6.074;2023-04-06T13:59:47;9.20;99.90
17619;DHT22;8928;51.678;6.074;2023-04-06T14:02:35;9.20;99.90
17619;DHT22;8928;51.678;6.074;2023-04-06T14:05:22;9.10;99.90
17619;DHT22;8928;51.678;6.074;2023-04-06T14:08:09;9.10;99.90
17619;DHT22;8928;51.678;6.074;2023-04-06T14:10:56;9.10;99.90
17619;DHT22;8928;51.678;6.074;2023-04-06T14:13:43;9.20;99.90
17619;DHT22;8928;51.678;6.074;2023-04-06T14:16:32;9.10;99.90
17619;DHT22;8928;51.678;6.074;2023-04-06T14:19:19;9.10;99.90
17619;DHT22;8928;51.678;6.074;2023-04-06T14:22:06;9.00;99.90
17619;DHT22;8928;51.678;6.074;2023-04-06T14:24:54;9.00;99.90
17619;DHT22;8928;51.678;6.074;2023-04-06T14:27:42;8.90;99.90
17619;DHT22;8928;51.678;6.074;2023-04-06T14:30:30;8.90;99.90
17619;DHT22;8928;51.678;6.074;2023-04-06T14:33:18;8.80;99.90
17619;DHT22;8928;51.678;6.074;2023-04-06T14:36:06;8.80;99.90
17619;DHT22;8928;51.678;6.074;2023-04-06T14:38:53;8.90;99.90
17619;DHT22;8928;51.678;6.074;2023-04-06T14:41:40;8.80;99.90
17619;DHT22;8928;51.678;6.074;2023-04-06T14:44:27;8.80;99.90
17619;DHT22;8928;51.678;6.074;2023-04-06T14:47:14;8.60;99.90
17619;DHT22;8928;51.678;6.074;2023-04-06T14:50:08;8.60;99.90
17619;DHT22;8928;51.678;6.074;2023-04-06T14:52:55;8.60;99.90
17619;DHT22;8928;51.678;6.074;2023-04-06T14:55:42;8.60;99.90
17619;DHT22;8928;51.678;6.074;2023-04-06T14:58:30;8.50;99.90
17619;DHT22;8928;51.678;6.074;2023-04-06T15:01:17;8.50;99.90
17619;DHT22;8928;51.678;6.074;2023-04-06T15:04:05;8.50;99.90
17619;DHT22;8928;51.678;6.074;2023-04-06T15:06:53;8.40;99.90
17619;DHT22;8928;51.678;6.074;2023-04-06T15:09:40;8.40;99.90
17619;DHT22;8928;51.678;6.074;2023-04-06T15:12:27;8.40;99.90
17619;DHT22;8928;51.678;6.074;2023-04-06T15:15:15;8.40;99.90
17619;DHT22;8928;51.678;6.074;2023-04-06T15:18:03;8.50;99.90
17619;DHT22;8928;51.678;6.074;2023-04-06T15:20:50;8.40;99.90
17619;DHT22;8928;51.678;6.074;2023-04-06T15:23:38;8.40;99.90
17619;DHT22;8928;51.678;6.074;2023-04-06T15:26:25;8.40;99.90
17619;DHT22;8928;51.678;6.074;2023-04-06T15:29:13;8.40;99.90
17619;DHT22;8928;51.678;6.074;2023-04-06T15:32:00;8.40;99.90
17619;DHT22;8928;51.678;6.074;2023-04-06T15:34:47;8.40;99.90
17619;DHT22;8928;51.678;6.074;2023-04-06T15:37:34;8.30;99.90
17619;DHT22;8928;51.678;6.074;2023-04-06T15:40:23;8.30;99.90
17619;DHT22;8928;51.678;6.074;2023-04-06T15:43:12;8.20;99.90
17619;DHT22;8928;51.678;6.074;2023-04-06T15:45:59;8.20;99.90
17619;DHT22;8928;51.678;6.074;2023-04-06T15:48:47;8.30;99.90
17619;DHT22;8928;51.678;6.074;2023-04-06T15:51:34;8.20;99.90
17619;DHT22;8928;51.678;6.074;2023-04-06T15:54:21;8.30;99.90
17619;DHT22;8928;51.678;6.074;2023-04-06T15:57:10;8.30;99.90
17619;DHT22;8928;51.678;6.074;2023-04-06T15:59:57;8.20;99.90
17619;DHT22;8928;51.678;6.074;2023-04-06T16:02:44;8.20;99.90
17619;DHT22;8928;51.678;6.074;2023-04-06T16:05:31;8.20;99.90
17619;DHT22;8928;51.678;6.074;2023-04-06T16:08:18;8.20;99.90
17619;DHT22;8928;51.678;6.074;2023-04-06T16:11:05;8.10;99.90
17619;DHT22;8928;51.678;6.074;2023-04-06T16:13:54;8.10;99.90
17619;DHT22;8928;51.678;6.074;2023-04-06T16:16:41;8.10;99.90
17619;DHT22;8928;51.678;6.074;2023-04-06T16:19:28;8.10;99.90
17619;DHT22;8928;51.678;6.074;2023-04-06T16:22:15;8.10;99.90
17619;DHT22;8928;51.678;6.074;2023-04-06T16:25:03;8.00;99.90
17619;DHT22;8928;51.678;6.074;2023-04-06T16:27:50;7.90;99.90
17619;DHT22;8928;51.678;6.074;2023-04-06T16:30:39;7.90;99.90
17619;DHT22;8928;51.678;6.074;2023-04-06T16:33:26;8.00;99.90
17619;DHT22;8928;51.678;6.074;2023-04-06T16:36:13;7.90;99.90
17619;DHT22;8928;51.678;6.074;2023-04-06T16:39:00;8.00;99.90
17619;DHT22;8928;51.678;6.074;2023-04-06T16:41:47;8.00;99.90
17619;DHT22;8928;51.678;6.074;2023-04-06T16:44:34;7.90;99.90
17619;DHT22;8928;51.678;6.074;2023-04-06T16:47:23;7.90;99.90
17619;DHT22;8928;51.678;6.074;2023-04-06T16:50:10;7.90;99.90
17619;DHT22;8928;51.678;6.074;2023-04-06T16:52:57;8.00;99.90
17619;DHT22;8928;51.678;6.074;2023-04-06T16:55:44;8.00;99.90
17619;DHT22;8928;51.678;6.074;2023-04-06T16:58:32;7.90;99.90
17619;DHT22;8928;51.678;6.074;2023-04-06T17:01:20;7.90;99.90
17619;DHT22;8928;51.678;6.074;2023-04-06T17:04:09;7.90;99.90
17619;DHT22;8928;51.678;6.074;2023-04-06T17:06:56;7.90;99.90
17619;DHT22;8928;51.678;6.074;2023-04-06T17:09:43;7.90;99.90
17619;DHT22;8928;51.678;6.074;2023-04-06T17:12:30;7.90;99.90
17619;DHT22;8928;51.678;6.074;2023-04-06T17:15:17;7.90;99.90
17619;DHT22;8928;51.678;6.074;2023-04-06T17:18:04;7.90;99.90
17619;DHT22;8928;51.678;6.074;2023-04-06T17:20:53;7.80;99.90
17619;DHT22;8928;51.678;6.074;2023-04-06T17:23:40;7.90;99.90
17619;DHT22;8928;51.678;6.074;2023-04-06T17:26:27;7.80;99.90
17619;DHT22;8928;51.678;6.074;2023-04-06T17:29:14;7.80;99.90
17619;DHT22;8928;51.678;6.074;2023-04-06T17:32:01;7.70;99.90
17619;DHT22;8928;51.678;6.074;2023-04-06T17:34:48;7.80;99.90
17619;DHT22;8928;51.678;6.074;2023-04-06T17:37:37;7.80;99.90
17619;DHT22;8928;51.678;6.074;2023-04-06T17:40:25;7.80;99.90
17619;DHT22;8928;51.678;6.074;2023-04-06T17:43:12;7.70;99.90
17619;DHT22;8928;51.678;6.074;2023-04-06T17:45:59;7.70;99.90
17619;DHT22;8928;51.678;6.074;2023-04-06T17:48:46;7.70;99.90
17619;DHT22;8928;51.678;6.074;2023-04-06T17:51:34;7.60;99.90
17619;DHT22;8928;51.678;6.074;2023-04-06T17:54:22;7.70;99.90
17619;DHT22;8928;51.678;6.074;2023-04-06T17:57:09;7.60;99.90
17619;DHT22;8928;51.678;6.074;2023-04-06T17:59:56;7.60;99.90
17619;DHT22;8928;51.678;6.074;2023-04-06T18:02:43;7.60;99.90
17619;DHT22;8928;51.678;6.074;2023-04-06T18:05:30;7.60;99.90
17619;DHT22;8928;51.678;6.074;2023-04-06T18:08:17;7.60;99.90
17619;DHT22;8928;51.678;6.074;2023-04-06T18:11:13;7.60;99.90